Time;durP1;ratioP1;P1;durP2;ratioP2;P2;SDS_P1;SDS_P2;PMS_P1;PMS_P2;Temp;Humidity;BMP_temperature;BMP_pressure;BME280_temperature;BME280_humidity;BME280_pressure;Samples;Min_cycle;Max_cycle;Signal;HPM_P1;HPM_P2
2023/10/07 00:02:11;;;;;;;7.07;3.47;;;15.80;99.90;;;;;;5060429;28;20483;-79
2023/10/07 00:04:38;;;;;;;9.00;3.70;;;15.80;99.90;;;;;;5067840;28;20511;-78
2023/10/07 00:07:10;;;;;;;4.43;2.80;;;15.70;99.90;;;;;;5058785;28;20906;-79
2023/10/07 00:09:39;;;;;;;10.43;3.63;;;15.70;99.90;;;;;;5056103;28;20464;-78
2023/10/07 00:12:06;;;;;;;10.37;3.90;;;15.70;99.90;;;;;;5056911;28;20481;-79
2023/10/07 00:14:33;;;;;;;6.43;3.60;;;15.70;99.90;;;;;;5055530;28;20455;-79
2023/10/07 00:17:06;;;;;;;6.87;4.37;;;15.60;99.90;;;;;;5054677;28;20494;-78
2023/10/07 00:19:33;;;;;;;7.70;3.80;;;15.50;99.90;;;;;;5053382;28;20458;-79
2023/10/07 00:22:00;;;;;;;7.07;4.00;;;15.60;99.90;;;;;;5045011;28;20600;-77
2023/10/07 00:24:32;;;;;;;9.00;3.70;;;15.60;99.90;;;;;;5054828;28;20486;-79
2023/10/07 00:27:00;;;;;;;6.10;3.73;;;15.50;99.90;;;;;;5053387;28;20448;-78
2023/10/07 00:29:36;;;;;;;9.90;3.77;;;15.60;99.90;;;;;;5053563;28;20463;-79
2023/10/07 00:32:07;;;;;;;6.90;3.30;;;15.50;99.90;;;;;;5054941;28;20807;-78
2023/10/07 00:34:38;;;;;;;10.00;2.93;;;15.50;99.90;;;;;;5054902;28;20463;-79
2023/10/07 00:37:06;;;;;;;7.50;3.47;;;15.50;99.90;;;;;;5055232;28;21053;-79
2023/10/07 00:39:32;;;;;;;6.13;2.80;;;15.50;99.90;;;;;;5054727;28;20460;-78
2023/10/07 00:41:59;;;;;;;5.97;3.20;;;15.50;99.90;;;;;;5055264;28;20929;-78
2023/10/07 00:44:32;;;;;;;5.57;3.13;;;15.50;99.90;;;;;;5055849;28;20463;-78
2023/10/07 00:47:13;;;;;;;6.50;3.43;;;15.50;99.90;;;;;;5055065;28;20487;-79
2023/10/07 00:49:50;;;;;;;9.17;4.30;;;15.50;99.90;;;;;;5055680;28;20897;-79
2023/10/07 00:52:27;;;;;;;7.43;3.10;;;15.50;99.90;;;;;;5048036;28;20473;-78
2023/10/07 00:54:59;;;;;;;8.60;3.70;;;15.50;99.90;;;;;;5055481;28;20464;-80
2023/10/07 00:57:35;;;;;;;9.63;3.37;;;15.50;99.90;;;;;;5055329;28;20482;-78
2023/10/07 01:00:12;;;;;;;4.93;3.23;;;15.40;99.90;;;;;;5055710;28;20468;-80
2023/10/07 01:02:39;;;;;;;4.97;3.23;;;15.50;99.90;;;;;;5055558;28;20542;-79
2023/10/07 01:05:12;;;;;;;8.83;3.83;;;15.50;99.90;;;;;;5055478;28;20455;-78
2023/10/07 01:07:40;;;;;;;8.13;3.13;;;15.50;99.90;;;;;;5055146;28;20461;-79
2023/10/07 01:10:13;;;;;;;8.90;3.70;;;15.50;99.90;;;;;;5055506;28;20509;-79
2023/10/07 01:12:42;;;;;;;10.27;3.20;;;15.50;99.90;;;;;;5054894;28;20546;-79
2023/10/07 01:15:18;;;;;;;5.80;3.73;;;15.40;99.90;;;;;;5055733;28;20551;-79
2023/10/07 01:17:45;;;;;;;6.60;3.73;;;15.40;99.90;;;;;;5054997;28;20483;-80
2023/10/07 01:20:14;;;;;;;6.30;3.20;;;15.30;99.90;;;;;;5056448;28;20838;-79
2023/10/07 01:23:02;;;;;;;6.93;3.00;;;15.40;99.90;;;;;;5056262;28;20503;-79
2023/10/07 01:25:30;;;;;;;6.10;3.37;;;15.40;99.90;;;;;;5056675;28;20450;-79
2023/10/07 01:28:01;;;;;;;9.03;3.43;;;15.40;99.90;;;;;;5055967;28;20534;-80
2023/10/07 01:30:29;;;;;;;9.70;3.13;;;15.40;99.90;;;;;;5058107;28;20517;-79
2023/10/07 01:33:02;;;;;;;5.77;3.83;;;15.30;99.90;;;;;;5059834;28;20458;-80
2023/10/07 01:35:38;;;;;;;6.43;4.50;;;15.30;99.90;;;;;;5066960;28;20451;-79
2023/10/07 01:38:09;;;;;;;5.80;3.70;;;15.10;99.90;;;;;;5060768;28;20545;-79
2023/10/07 01:40:54;;;;;;;6.87;3.77;;;15.20;99.90;;;;;;5061020;28;20556;-80
2023/10/07 01:43:21;;;;;;;8.30;3.97;;;15.30;99.90;;;;;;5053082;28;20447;-80
2023/10/07 01:45:49;;;;;;;7.83;3.80;;;15.40;99.90;;;;;;5059673;28;20444;-80
2023/10/07 01:48:17;;;;;;;7.63;4.07;;;15.40;99.90;;;;;;5051290;28;20473;-79
2023/10/07 01:50:45;;;;;;;7.43;3.30;;;15.40;99.90;;;;;;5059024;28;20506;-78
2023/10/07 01:53:15;;;;;;;8.13;4.00;;;15.40;99.90;;;;;;5058202;28;20466;-78
2023/10/07 01:55:43;;;;;;;10.17;3.70;;;15.40;99.90;;;;;;5056091;28;20951;-78
2023/10/07 01:58:13;;;;;;;9.03;4.07;;;15.50;99.90;;;;;;5055689;28;20490;-78
2023/10/07 02:00:44;;;;;;;8.50;4.00;;;15.50;99.90;;;;;;5058048;28;20486;-79
2023/10/07 02:03:15;;;;;;;8.70;4.10;;;15.50;99.90;;;;;;5059907;28;20451;-79
2023/10/07 02:05:47;;;;;;;6.77;3.50;;;15.50;99.90;;;;;;5058556;28;20451;-79
2023/10/07 02:08:18;;;;;;;9.40;3.90;;;15.50;99.90;;;;;;5049243;28;20994;-78
2023/10/07 02:10:47;;;;;;;9.87;4.37;;;15.50;99.90;;;;;;5058504;28;20473;-78
2023/10/07 02:13:19;;;;;;;9.13;3.57;;;15.50;99.90;;;;;;5058822;28;20546;-80
2023/10/07 02:15:47;;;;;;;7.80;4.67;;;15.60;99.90;;;;;;5058702;28;20518;-77
2023/10/07 02:18:16;;;;;;;8.30;4.43;;;15.50;99.90;;;;;;5056395;28;20488;-79
2023/10/07 02:20:49;;;;;;;8.00;4.37;;;15.50;99.90;;;;;;5056128;28;20479;-79
2023/10/07 02:23:22;;;;;;;7.47;4.27;;;15.60;99.90;;;;;;5056784;28;20479;-78
2023/10/07 02:25:50;;;;;;;8.03;3.90;;;15.60;99.90;;;;;;5056954;28;20455;-79
2023/10/07 02:28:21;;;;;;;8.40;4.80;;;15.60;99.90;;;;;;5057243;28;20531;-78
2023/10/07 02:30:59;;;;;;;9.10;4.53;;;15.50;99.90;;;;;;5055306;28;20896;-79
2023/10/07 02:33:27;;;;;;;8.77;3.80;;;15.50;99.90;;;;;;5057043;28;20456;-79
2023/10/07 02:35:56;;;;;;;8.80;4.17;;;15.60;99.90;;;;;;5056384;28;20459;-78
2023/10/07 02:38:38;;;;;;;10.30;6.20;;;15.60;99.90;;;;;;5049371;28;20491;-79
2023/10/07 02:41:16;;;;;;;8.43;5.40;;;15.50;99.90;;;;;;5057640;28;20479;-79
2023/10/07 02:43:48;;;;;;;12.40;5.60;;;15.50;99.90;;;;;;5055908;28;20493;-78
2023/10/07 02:46:27;;;;;;;11.40;5.03;;;15.50;99.90;;;;;;5056588;28;20683;-79
2023/10/07 02:49:01;;;;;;;11.17;5.40;;;15.50;99.90;;;;;;5054265;28;20866;-79
2023/10/07 02:51:28;;;;;;;15.00;6.73;;;15.60;99.90;;;;;;5051632;28;20533;-78
2023/10/07 02:54:04;;;;;;;13.97;6.50;;;15.60;99.90;;;;;;5055879;28;20869;-79
2023/10/07 02:56:44;;;;;;;12.40;5.33;;;15.60;99.90;;;;;;5051497;28;20459;-79
2023/10/07 02:59:26;;;;;;;11.30;5.60;;;15.60;99.90;;;;;;5054527;28;20854;-78
2023/10/07 03:02:12;;;;;;;12.70;5.67;;;15.70;99.90;;;;;;5055571;28;20502;-79
2023/10/07 03:04:42;;;;;;;12.10;6.57;;;15.60;99.90;;;;;;5055555;28;20825;-78
2023/10/07 03:07:14;;;;;;;11.37;6.03;;;15.60;99.90;;;;;;5055750;28;20554;-78
2023/10/07 03:09:45;;;;;;;10.10;6.37;;;15.60;99.90;;;;;;5056204;28;20849;-79
2023/10/07 03:12:13;;;;;;;8.83;5.60;;;15.60;99.90;;;;;;5059114;28;20511;-78
2023/10/07 03:14:43;;;;;;;13.47;6.30;;;15.50;99.90;;;;;;5056244;28;20464;-79
2023/10/07 03:17:18;;;;;;;17.17;5.27;;;15.50;99.90;;;;;;5056646;28;20491;-78
2023/10/07 03:19:53;;;;;;;10.10;5.30;;;15.60;99.90;;;;;;5055470;28;20458;-79
2023/10/07 03:22:27;;;;;;;13.63;5.67;;;15.60;99.90;;;;;;5058370;28;20813;-79
2023/10/07 03:25:00;;;;;;;10.53;6.03;;;15.60;99.90;;;;;;5057166;28;20455;-79
2023/10/07 03:27:27;;;;;;;13.83;6.80;;;15.50;99.90;;;;;;5057490;28;20442;-79
2023/10/07 03:30:07;;;;;;;14.10;7.30;;;15.50;99.90;;;;;;5060496;28;20454;-80
2023/10/07 03:32:54;;;;;;;10.07;5.47;;;15.50;99.90;;;;;;5052671;28;20448;-79
2023/10/07 03:35:35;;;;;;;9.83;5.50;;;15.60;99.90;;;;;;5060063;28;20632;-79
2023/10/07 03:38:08;;;;;;;11.10;6.33;;;15.50;99.90;;;;;;5057335;28;20526;-80
2023/10/07 03:40:38;;;;;;;9.20;6.77;;;15.60;99.90;;;;;;5059313;28;20935;-79
2023/10/07 03:43:08;;;;;;;10.70;6.40;;;15.60;99.90;;;;;;5056013;28;20974;-80
2023/10/07 03:45:39;;;;;;;10.77;7.87;;;15.60;99.90;;;;;;5058776;28;20543;-79
2023/10/07 03:48:22;;;;;;;12.37;7.60;;;15.60;99.90;;;;;;5065381;28;20809;-79
2023/10/07 03:50:59;;;;;;;9.83;6.37;;;15.60;99.90;;;;;;5052531;28;20528;-79
2023/10/07 03:53:32;;;;;;;11.90;6.77;;;15.70;99.90;;;;;;5055538;28;20509;-78
2023/10/07 03:56:06;;;;;;;10.67;7.30;;;15.70;99.90;;;;;;5055156;28;20480;-79
2023/10/07 03:58:36;;;;;;;12.03;7.33;;;15.60;99.90;;;;;;5053820;28;20841;-79
2023/10/07 04:01:11;;;;;;;11.93;6.83;;;15.70;99.90;;;;;;5056522;28;20912;-78
2023/10/07 04:03:39;;;;;;;13.00;8.80;;;15.70;99.90;;;;;;5056377;28;20466;-80
2023/10/07 04:06:09;;;;;;;11.50;8.33;;;15.60;99.90;;;;;;5058343;28;20455;-80
2023/10/07 04:08:36;;;;;;;17.17;8.07;;;15.60;99.90;;;;;;5057846;28;20472;-80
2023/10/07 04:11:07;;;;;;;13.60;8.40;;;15.60;99.90;;;;;;5057267;28;20572;-79
2023/10/07 04:13:33;;;;;;;13.60;8.47;;;15.60;99.90;;;;;;5057568;28;20880;-79
2023/10/07 04:16:01;;;;;;;12.13;7.20;;;15.60;99.90;;;;;;5056374;28;20831;-78
2023/10/07 04:18:35;;;;;;;11.93;6.90;;;15.70;99.90;;;;;;5054520;28;20479;-79
2023/10/07 04:21:03;;;;;;;8.70;5.80;;;15.70;99.90;;;;;;5053592;28;20477;-79
2023/10/07 04:23:31;;;;;;;7.97;5.93;;;15.80;99.90;;;;;;5054154;28;20491;-78
2023/10/07 04:26:05;;;;;;;16.20;9.03;;;15.80;99.90;;;;;;5053924;28;21018;-78
2023/10/07 04:28:34;;;;;;;15.30;8.20;;;15.80;99.90;;;;;;5053913;28;20447;-78
2023/10/07 04:31:09;;;;;;;19.00;8.20;;;15.80;99.90;;;;;;5054229;28;20475;-77
2023/10/07 04:33:40;;;;;;;11.90;7.93;;;15.80;99.90;;;;;;5054813;28;20463;-78
2023/10/07 04:36:11;;;;;;;17.80;8.43;;;15.90;99.90;;;;;;5054441;28;20464;-78
2023/10/07 04:38:53;;;;;;;10.50;8.30;;;15.90;99.90;;;;;;5052910;28;20482;-77
2023/10/07 04:41:32;;;;;;;11.53;8.83;;;16.00;99.90;;;;;;5047389;28;20594;-78
2023/10/07 04:44:20;;;;;;;15.57;9.13;;;15.90;99.90;;;;;;5056066;28;20477;-78
2023/10/07 04:46:55;;;;;;;14.17;9.50;;;15.80;99.90;;;;;;5056133;28;20810;-78
2023/10/07 04:49:35;;;;;;;16.70;11.17;;;15.80;99.90;;;;;;5051884;28;20838;-79
2023/10/07 04:52:05;;;;;;;13.57;9.67;;;15.80;99.90;;;;;;5055920;28;20558;-78
2023/10/07 04:54:35;;;;;;;16.60;9.53;;;15.80;99.90;;;;;;5056449;28;20829;-77
2023/10/07 04:57:09;;;;;;;16.20;9.77;;;15.80;99.90;;;;;;5057049;28;20978;-77
2023/10/07 04:59:45;;;;;;;13.93;9.67;;;15.80;99.90;;;;;;5056538;28;20877;-78
2023/10/07 05:02:15;;;;;;;14.53;8.97;;;15.70;99.90;;;;;;5055910;28;20479;-78
2023/10/07 05:04:48;;;;;;;15.70;10.40;;;15.70;99.90;;;;;;5054938;28;20492;-79
2023/10/07 05:07:20;;;;;;;17.63;9.70;;;15.60;99.90;;;;;;5050892;28;20488;-79
2023/10/07 05:09:47;;;;;;;17.03;9.00;;;15.70;99.90;;;;;;5056152;28;20456;-78
2023/10/07 05:12:14;;;;;;;16.10;10.63;;;15.60;99.90;;;;;;5057141;28;20575;-77
2023/10/07 05:14:41;;;;;;;10.87;9.10;;;15.60;99.90;;;;;;5061642;28;20477;-78
2023/10/07 05:17:10;;;;;;;10.47;8.87;;;15.70;99.90;;;;;;5059652;28;20464;-78
2023/10/07 05:19:37;;;;;;;13.07;10.60;;;15.80;99.90;;;;;;5062023;28;20464;-78
2023/10/07 05:22:14;;;;;;;10.70;8.60;;;15.70;99.90;;;;;;5064643;28;20857;-79
2023/10/07 05:24:41;;;;;;;15.33;9.03;;;15.80;99.90;;;;;;5063075;28;20452;-78
2023/10/07 05:27:08;;;;;;;12.10;8.70;;;15.80;99.90;;;;;;5061364;28;20467;-77
2023/10/07 05:29:35;;;;;;;13.57;10.07;;;15.80;99.90;;;;;;5060827;28;20455;-79
2023/10/07 05:32:03;;;;;;;14.43;9.50;;;15.80;99.90;;;;;;5062971;28;20474;-79
2023/10/07 05:34:30;;;;;;;12.37;9.33;;;15.90;99.90;;;;;;5062591;28;20454;-78
2023/10/07 05:37:03;;;;;;;13.47;8.30;;;15.80;99.90;;;;;;5061101;28;20462;-79
2023/10/07 05:39:32;;;;;;;13.80;8.70;;;15.80;99.90;;;;;;5061424;28;20483;-79
2023/10/07 05:41:59;;;;;;;14.63;8.37;;;15.80;99.90;;;;;;5061064;28;20486;-79
2023/10/07 05:44:26;;;;;;;13.07;8.83;;;15.90;99.90;;;;;;5063517;28;20483;-79
2023/10/07 05:46:53;;;;;;;13.57;7.83;;;15.80;99.90;;;;;;5063424;28;20527;-78
2023/10/07 05:49:22;;;;;;;15.60;9.77;;;15.80;99.90;;;;;;5062402;28;20456;-78
2023/10/07 05:51:49;;;;;;;13.20;9.17;;;15.70;99.90;;;;;;5058905;28;20480;-78
2023/10/07 05:54:18;;;;;;;14.83;7.10;;;15.80;99.90;;;;;;5062930;28;20478;-78
2023/10/07 05:56:47;;;;;;;12.00;8.17;;;15.90;99.90;;;;;;5065199;28;20468;-78
2023/10/07 05:59:14;;;;;;;12.50;8.43;;;15.90;99.90;;;;;;5063786;28;20491;-79
2023/10/07 06:01:41;;;;;;;18.03;8.47;;;15.80;99.90;;;;;;5063485;28;20560;-78
2023/10/07 06:04:07;;;;;;;10.20;7.67;;;15.80;99.90;;;;;;5060347;28;20459;-78
2023/10/07 06:06:36;;;;;;;13.90;7.57;;;15.90;99.90;;;;;;5060255;28;20459;-79
2023/10/07 06:09:03;;;;;;;11.97;7.50;;;15.90;99.90;;;;;;5060073;28;20460;-78
2023/10/07 06:11:31;;;;;;;10.27;7.30;;;15.90;99.90;;;;;;5060950;28;20604;-79
2023/10/07 06:13:59;;;;;;;11.30;8.13;;;15.90;99.90;;;;;;5060943;28;20463;-77
2023/10/07 06:16:26;;;;;;;11.03;7.33;;;15.90;99.90;;;;;;5060700;28;20459;-79
2023/10/07 06:18:53;;;;;;;9.43;7.07;;;15.90;99.90;;;;;;5060285;28;20491;-79
2023/10/07 06:21:27;;;;;;;12.83;8.47;;;16.00;99.90;;;;;;5060606;28;20483;-78
2023/10/07 06:23:58;;;;;;;9.00;7.10;;;16.00;99.90;;;;;;5059728;28;20528;-79
2023/10/07 06:26:25;;;;;;;10.00;6.70;;;16.00;99.90;;;;;;5059947;28;20787;-79
2023/10/07 06:28:52;;;;;;;10.47;7.23;;;16.00;99.90;;;;;;5060482;28;20539;-79
2023/10/07 06:31:28;;;;;;;14.77;7.30;;;16.00;99.90;;;;;;5060869;28;20470;-79
2023/10/07 06:34:00;;;;;;;12.30;9.00;;;16.00;99.90;;;;;;5060357;28;20441;-79
2023/10/07 06:36:30;;;;;;;16.23;8.60;;;16.00;99.90;;;;;;5060035;28;20491;-79
2023/10/07 06:38:59;;;;;;;15.80;9.70;;;16.00;99.90;;;;;;5057661;28;20815;-78
2023/10/07 06:41:29;;;;;;;9.73;7.37;;;16.00;99.90;;;;;;5058477;28;20473;-79
2023/10/07 06:43:59;;;;;;;11.07;7.93;;;16.10;99.90;;;;;;5059718;28;20454;-77
2023/10/07 06:46:31;;;;;;;9.43;7.23;;;16.10;99.90;;;;;;5062517;28;20813;-79
2023/10/07 06:48:59;;;;;;;12.17;7.90;;;16.10;99.90;;;;;;5060555;28;20447;-78
2023/10/07 06:51:29;;;;;;;13.73;9.57;;;16.20;99.90;;;;;;5064005;28;20476;-77
2023/10/07 06:53:58;;;;;;;20.03;9.30;;;16.20;99.90;;;;;;5069432;28;20447;-78
2023/10/07 06:56:26;;;;;;;14.67;9.30;;;16.10;99.90;;;;;;5062488;28;20447;-78
2023/10/07 06:58:54;;;;;;;11.83;9.00;;;16.10;99.90;;;;;;5055825;28;20480;-79
2023/10/07 07:01:35;;;;;;;11.87;8.77;;;16.10;99.90;;;;;;5059051;28;20834;-78
2023/10/07 07:04:09;;;;;;;20.47;9.00;;;16.20;99.90;;;;;;5051904;28;20487;-78
2023/10/07 07:06:42;;;;;;;14.07;8.17;;;16.20;99.90;;;;;;5054549;28;20937;-79
2023/10/07 07:11:52;;;;;;;12.63;7.60;;;16.20;99.90;;;;;;5059368;28;20466;-78
2023/10/07 07:14:19;;;;;;;11.90;7.40;;;16.20;99.90;;;;;;5056242;28;20976;-79
2023/10/07 07:16:49;;;;;;;7.77;6.37;;;16.30;99.90;;;;;;5056551;28;20954;-77
2023/10/07 07:19:22;;;;;;;9.20;7.60;;;16.30;99.90;;;;;;5054069;28;20884;-78
2023/10/07 07:21:48;;;;;;;9.37;6.63;;;16.30;99.90;;;;;;5053857;28;21010;-77
2023/10/07 07:24:21;;;;;;;10.10;6.87;;;16.40;99.90;;;;;;5052424;28;20506;-79
2023/10/07 07:26:51;;;;;;;11.40;5.90;;;16.30;99.90;;;;;;5055514;28;20454;-79
2023/10/07 07:29:19;;;;;;;13.17;7.17;;;16.40;99.90;;;;;;5054091;28;20480;-78
2023/10/07 07:31:46;;;;;;;10.33;6.90;;;16.40;99.90;;;;;;5054497;28;20476;-78
2023/10/07 07:34:21;;;;;;;11.67;6.43;;;16.50;99.90;;;;;;5056710;28;20462;-80
2023/10/07 07:36:56;;;;;;;13.20;6.60;;;16.60;99.90;;;;;;5052275;28;20535;-79
2023/10/07 07:39:24;;;;;;;8.40;5.67;;;16.60;99.90;;;;;;5052698;28;20486;-80
2023/10/07 07:41:57;;;;;;;13.80;6.13;;;16.70;99.90;;;;;;5056110;28;20846;-80
2023/10/07 07:44:34;;;;;;;9.30;5.73;;;16.70;99.90;;;;;;5055678;28;20467;-80
2023/10/07 07:47:02;;;;;;;12.03;4.80;;;16.70;99.90;;;;;;5052461;28;20536;-80
2023/10/07 07:49:32;;;;;;;13.50;6.63;;;16.80;99.90;;;;;;5055454;28;20451;-80
2023/10/07 07:51:59;;;;;;;10.00;5.50;;;16.70;99.90;;;;;;5057572;28;20508;-80
2023/10/07 07:54:29;;;;;;;11.57;5.57;;;16.70;99.90;;;;;;5058175;28;20461;-80
2023/10/07 07:56:56;;;;;;;10.20;6.17;;;16.70;99.90;;;;;;5058302;28;20455;-80
2023/10/07 07:59:24;;;;;;;9.10;5.53;;;16.70;99.90;;;;;;5058149;28;20492;-80
2023/10/07 08:01:53;;;;;;;8.70;5.57;;;16.70;99.90;;;;;;5055086;28;20603;-79
2023/10/07 08:04:37;;;;;;;10.70;5.97;;;16.90;99.90;;;;;;5054705;28;20621;-80
2023/10/07 08:07:07;;;;;;;12.17;5.23;;;17.00;99.90;;;;;;5055284;28;20458;-78
2023/10/07 08:09:37;;;;;;;7.40;4.33;;;17.00;99.90;;;;;;5057435;28;20548;-78
2023/10/07 08:12:05;;;;;;;11.77;4.50;;;17.10;99.90;;;;;;5056294;28;20496;-79
2023/10/07 08:14:35;;;;;;;8.70;5.30;;;17.20;99.90;;;;;;5054940;28;20495;-78
2023/10/07 08:17:04;;;;;;;7.40;4.50;;;17.20;99.90;;;;;;5054759;28;20492;-77
2023/10/07 08:19:32;;;;;;;7.47;5.10;;;17.20;99.90;;;;;;5052242;28;20890;-78
2023/10/07 08:22:02;;;;;;;11.53;5.30;;;17.30;99.90;;;;;;5056139;28;20476;-77
2023/10/07 08:24:31;;;;;;;10.90;5.53;;;17.30;99.90;;;;;;5054591;28;21021;-78
2023/10/07 08:27:03;;;;;;;7.70;4.90;;;17.40;99.90;;;;;;5053636;28;20462;-78
2023/10/07 08:29:33;;;;;;;10.20;5.20;;;17.50;99.90;;;;;;5055996;28;20446;-80
2023/10/07 08:32:09;;;;;;;10.40;5.33;;;17.50;99.90;;;;;;5056937;28;20471;-79
2023/10/07 08:34:37;;;;;;;6.70;3.90;;;17.70;99.90;;;;;;5051133;28;20454;-78
2023/10/07 08:37:08;;;;;;;6.40;5.13;;;17.80;99.90;;;;;;5053836;28;20452;-77
2023/10/07 08:39:44;;;;;;;9.37;4.37;;;17.80;99.90;;;;;;5053943;28;20831;-78
2023/10/07 08:42:24;;;;;;;8.17;4.97;;;17.90;99.90;;;;;;5058133;28;20488;-79
2023/10/07 08:44:57;;;;;;;7.13;4.90;;;17.90;99.90;;;;;;5059582;28;20452;-79
2023/10/07 08:47:26;;;;;;;9.10;4.60;;;17.70;99.90;;;;;;5056968;28;20508;-78
2023/10/07 08:49:56;;;;;;;6.77;4.40;;;17.60;99.90;;;;;;5060414;28;20509;-79
2023/10/07 08:52:28;;;;;;;6.90;4.83;;;17.60;99.90;;;;;;5057455;28;20453;-78
2023/10/07 08:54:55;;;;;;;6.47;4.47;;;17.60;99.90;;;;;;5058282;28;20511;-79
2023/10/07 08:57:25;;;;;;;11.57;4.60;;;17.70;99.90;;;;;;5058738;28;20482;-77
2023/10/07 08:59:53;;;;;;;7.73;5.07;;;17.60;99.90;;;;;;5063540;28;21003;-79
2023/10/07 09:02:27;;;;;;;8.20;4.93;;;17.50;99.90;;;;;;5059367;28;21010;-77
2023/10/07 09:04:55;;;;;;;7.00;5.50;;;17.50;99.90;;;;;;5057496;28;20450;-78
2023/10/07 09:07:30;;;;;;;7.90;4.53;;;17.60;99.90;;;;;;5057083;28;20496;-78
2023/10/07 09:10:08;;;;;;;10.73;4.80;;;17.70;99.90;;;;;;5059662;28;20553;-77
2023/10/07 09:12:45;;;;;;;8.80;4.90;;;17.60;99.90;;;;;;5053775;28;20951;-78
2023/10/07 09:15:20;;;;;;;10.17;4.83;;;17.70;99.90;;;;;;5055279;28;20534;-78
2023/10/07 09:17:47;;;;;;;9.60;4.40;;;17.70;99.90;;;;;;5061000;28;20458;-78
2023/10/07 09:20:17;;;;;;;8.30;4.43;;;17.70;99.90;;;;;;5052294;28;20987;-79
2023/10/07 09:22:47;;;;;;;11.00;5.10;;;17.70;99.90;;;;;;5058584;28;20470;-78
2023/10/07 09:25:17;;;;;;;9.37;4.20;;;17.70;99.90;;;;;;5056723;28;20468;-79
2023/10/07 09:27:54;;;;;;;7.60;4.13;;;17.80;99.90;;;;;;5056010;28;20451;-79
2023/10/07 09:30:44;;;;;;;9.30;4.30;;;17.80;99.90;;;;;;5053595;28;20471;-78
2023/10/07 09:33:13;;;;;;;6.67;4.07;;;17.90;99.90;;;;;;5052513;28;21032;-79
2023/10/07 09:35:42;;;;;;;7.80;4.40;;;18.10;99.90;;;;;;5053250;28;20451;-79
2023/10/07 09:38:22;;;;;;;10.33;4.17;;;18.10;99.90;;;;;;5053684;28;20448;-78
2023/10/07 09:43:37;;;;;;;7.63;4.10;;;18.30;99.90;;;;;;5047109;28;20829;-80
2023/10/07 09:46:07;;;;;;;10.27;4.00;;;18.40;99.90;;;;;;5052829;28;20483;-78
2023/10/07 09:48:41;;;;;;;7.60;3.80;;;18.50;99.90;;;;;;5052728;28;20544;-79
2023/10/07 09:51:14;;;;;;;9.20;3.63;;;18.60;99.90;;;;;;5051622;28;20841;-79
2023/10/07 09:53:52;;;;;;;6.60;3.93;;;18.80;99.90;;;;;;5053537;28;20462;-80
2023/10/07 09:56:32;;;;;;;12.97;4.10;;;18.80;99.90;;;;;;5051331;28;20450;-80
2023/10/07 09:59:15;;;;;;;7.60;3.90;;;18.90;99.90;;;;;;5055009;28;20483;-78
2023/10/07 10:02:16;;;;;;;9.97;4.10;;;19.00;99.90;;;;;;5056888;28;20503;-81
2023/10/07 10:05:11;;;;;;;8.00;4.07;;;19.30;99.90;;;;;;5057229;28;20490;-78
2023/10/07 10:08:11;;;;;;;6.80;3.30;;;19.40;99.90;;;;;;5054138;28;20525;-78
2023/10/07 10:10:44;;;;;;;5.90;3.00;;;19.80;99.90;;;;;;5053785;28;20479;-78
2023/10/07 10:13:28;;;;;;;10.07;3.30;;;20.00;99.90;;;;;;5055436;28;20484;-79
2023/10/07 10:15:57;;;;;;;8.10;3.43;;;20.20;99.90;;;;;;5056404;28;20933;-80
2023/10/07 10:21:12;;;;;;;6.40;3.20;;;20.80;99.90;;;;;;5046765;28;20471;-79
2023/10/07 10:23:41;;;;;;;5.30;3.20;;;20.90;99.90;;;;;;5055704;28;20501;-79
2023/10/07 10:26:20;;;;;;;5.93;3.20;;;21.00;99.90;;;;;;5054231;28;20466;-79
2023/10/07 10:29:00;;;;;;;6.03;2.97;;;21.30;99.90;;;;;;5053764;28;20451;-79
2023/10/07 10:31:34;;;;;;;6.30;2.73;;;21.70;99.90;;;;;;5046284;28;20468;-79
2023/10/07 10:34:05;;;;;;;5.20;2.80;;;22.20;99.90;;;;;;5055211;28;20458;-79
2023/10/07 10:36:35;;;;;;;4.23;2.67;;;22.50;99.90;;;;;;5055224;28;20483;-80
2023/10/07 10:39:05;;;;;;;5.20;2.73;;;22.90;99.90;;;;;;5054049;28;20483;-79
2023/10/07 10:41:33;;;;;;;5.93;3.50;;;23.00;99.90;;;;;;5054727;28;20472;-79
2023/10/07 10:44:06;;;;;;;4.10;2.97;;;22.90;99.90;;;;;;5055597;28;20478;-80
2023/10/07 10:46:48;;;;;;;6.20;3.37;;;23.10;99.90;;;;;;5055002;28;20460;-78
2023/10/07 10:49:16;;;;;;;5.13;2.90;;;23.30;99.90;;;;;;5050005;28;20531;-79
2023/10/07 10:51:46;;;;;;;6.37;2.90;;;23.50;99.90;;;;;;5049690;28;20464;-80
2023/10/07 10:54:17;;;;;;;7.17;2.77;;;23.60;99.90;;;;;;5049834;28;20451;-80
2023/10/07 10:56:55;;;;;;;5.83;2.77;;;23.60;99.90;;;;;;5055349;28;20494;-79
2023/10/07 10:59:23;;;;;;;5.30;2.40;;;23.70;99.90;;;;;;5047991;28;20471;-79
2023/10/07 11:01:51;;;;;;;5.20;2.80;;;24.00;99.90;;;;;;5056985;28;21030;-79
2023/10/07 11:04:21;;;;;;;6.17;2.50;;;24.10;99.90;;;;;;5055642;28;20459;-79
2023/10/07 11:06:51;;;;;;;6.37;3.73;;;24.30;99.90;;;;;;5056500;28;20466;-80
2023/10/07 11:09:26;;;;;;;7.20;3.43;;;24.40;99.90;;;;;;5055406;28;20463;-80
2023/10/07 11:11:57;;;;;;;7.77;3.97;;;24.50;99.90;;;;;;5054936;28;20467;-79
2023/10/07 11:14:24;;;;;;;6.80;3.60;;;24.80;99.90;;;;;;5056170;28;20458;-78
2023/10/07 11:17:00;;;;;;;7.53;3.00;;;24.80;99.90;;;;;;5055065;28;20452;-79
2023/10/07 11:19:27;;;;;;;4.63;2.90;;;25.20;99.90;;;;;;5055176;28;20529;-79
2023/10/07 11:21:57;;;;;;;4.63;2.50;;;25.30;99.90;;;;;;5055103;28;20511;-79
2023/10/07 11:24:25;;;;;;;8.80;2.53;;;25.60;99.90;;;;;;5054496;28;20483;-79
2023/10/07 11:26:56;;;;;;;4.97;3.13;;;25.30;99.90;;;;;;5054514;28;20952;-80
2023/10/07 11:29:30;;;;;;;6.93;2.80;;;24.90;99.90;;;;;;5055189;28;20463;-80
2023/10/07 11:32:02;;;;;;;4.53;2.37;;;24.70;99.90;;;;;;5055640;28;20484;-80
2023/10/07 11:34:36;;;;;;;4.23;2.57;;;24.40;99.90;;;;;;5056167;28;20877;-80
2023/10/07 11:37:10;;;;;;;6.30;3.07;;;24.40;99.90;;;;;;5055140;28;20630;-78
2023/10/07 11:39:45;;;;;;;6.90;3.30;;;23.90;99.90;;;;;;5054754;28;20514;-79
2023/10/07 11:42:14;;;;;;;6.97;2.93;;;24.20;99.90;;;;;;5054667;28;20482;-80
2023/10/07 11:44:42;;;;;;;5.87;2.90;;;24.60;99.90;;;;;;5056119;28;20459;-81
2023/10/07 11:47:11;;;;;;;4.87;2.70;;;24.60;99.90;;;;;;5054100;28;20460;-77
2023/10/07 11:49:38;;;;;;;4.80;2.97;;;24.50;99.90;;;;;;5055076;28;20451;-79
2023/10/07 11:55:17;;;;;;;7.50;2.83;;;24.10;99.90;;;;;;5013157;28;20450;-79
2023/10/07 11:57:43;;;;;;;6.47;3.00;;;23.50;99.90;;;;;;5053961;28;20543;-79
2023/10/07 12:00:22;;;;;;;5.90;2.83;;;23.50;99.90;;;;;;5054766;28;20491;-79
2023/10/07 12:02:51;;;;;;;7.17;3.00;;;23.60;99.90;;;;;;5055300;28;20766;-78
2023/10/07 12:05:18;;;;;;;6.43;2.97;;;23.30;99.90;;;;;;5051751;28;20458;-79
2023/10/07 12:07:47;;;;;;;4.97;3.03;;;23.10;99.90;;;;;;5053643;28;20456;-79
2023/10/07 12:10:16;;;;;;;5.30;3.07;;;23.30;99.90;;;;;;5054282;28;20436;-79
2023/10/07 12:12:43;;;;;;;8.00;2.97;;;23.60;99.90;;;;;;5054946;28;20452;-79
2023/10/07 12:15:12;;;;;;;5.37;3.07;;;24.10;99.90;;;;;;5054639;28;20460;-78
2023/10/07 12:17:42;;;;;;;4.57;2.83;;;24.50;99.90;;;;;;5053392;28;20873;-79
2023/10/07 12:20:13;;;;;;;5.83;2.50;;;24.80;99.90;;;;;;5052983;28;20557;-79
2023/10/07 12:22:42;;;;;;;5.63;3.20;;;24.90;99.90;;;;;;5053483;28;20461;-79
2023/10/07 12:25:13;;;;;;;6.77;3.00;;;24.60;99.90;;;;;;5054211;28;20550;-79
2023/10/07 12:27:42;;;;;;;7.23;3.10;;;24.20;99.90;;;;;;5054312;28;20522;-79
2023/10/07 12:30:11;;;;;;;6.63;3.10;;;24.10;99.90;;;;;;5054221;28;20513;-79
2023/10/07 12:32:38;;;;;;;5.00;2.70;;;24.30;99.90;;;;;;5049935;28;20948;-78
2023/10/07 12:35:05;;;;;;;5.80;2.60;;;24.60;99.90;;;;;;5053778;28;20451;-78
2023/10/07 12:37:34;;;;;;;5.07;2.77;;;24.70;99.90;;;;;;5053073;28;20519;-79
2023/10/07 12:40:01;;;;;;;4.00;2.60;;;24.80;99.90;;;;;;5053650;28;21222;-78
2023/10/07 12:42:28;;;;;;;7.80;3.63;;;24.90;99.90;;;;;;5052432;28;20452;-79
2023/10/07 12:44:55;;;;;;;6.83;3.17;;;25.30;99.90;;;;;;5052418;28;20462;-79
2023/10/07 12:47:23;;;;;;;7.60;3.20;;;25.00;99.90;;;;;;5045819;28;20439;-79
2023/10/07 12:49:53;;;;;;;6.07;3.30;;;25.40;99.90;;;;;;5052581;28;20550;-78
2023/10/07 12:52:19;;;;;;;4.87;2.60;;;25.90;99.90;;;;;;5053358;28;20464;-79
2023/10/07 12:54:48;;;;;;;5.13;2.67;;;26.20;99.90;;;;;;5053957;28;20534;-79
2023/10/07 12:57:15;;;;;;;5.13;3.07;;;26.50;99.90;;;;;;5052572;28;20981;-77
2023/10/07 12:59:42;;;;;;;6.00;3.17;;;26.70;99.90;;;;;;5053303;28;20496;-79
2023/10/07 13:02:17;;;;;;;5.10;3.23;;;26.80;99.90;;;;;;5052429;28;20490;-78
2023/10/07 13:04:44;;;;;;;4.80;3.10;;;27.00;99.90;;;;;;5053647;28;20447;-79
2023/10/07 13:07:14;;;;;;;6.43;3.20;;;27.10;99.90;;;;;;5052825;28;20881;-78
2023/10/07 13:09:42;;;;;;;6.20;3.60;;;27.30;99.90;;;;;;5052536;28;20460;-79
2023/10/07 13:12:15;;;;;;;8.00;3.47;;;27.40;99.90;;;;;;5053614;28;20493;-78
2023/10/07 13:14:42;;;;;;;6.07;3.07;;;27.90;99.90;;;;;;5052905;28;20582;-80
2023/10/07 13:17:13;;;;;;;7.20;3.63;;;27.60;99.90;;;;;;5052738;28;20981;-79